sensor_id;sensor_type;location;lat;lon;timestamp;P1;durP1;ratioP1;P2;durP2;ratioP2
17818;SDS011;9034;50.284;19.310;2023-12-07T00:00:59;49.25;;;19.02;;
17818;SDS011;9034;50.284;19.310;2023-12-07T00:02:01;43.60;;;19.58;;
17818;SDS011;9034;50.284;19.310;2023-12-07T00:03:04;53.88;;;22.25;;
17818;SDS011;9034;50.284;19.310;2023-12-07T00:04:08;61.20;;;22.30;;
17818;SDS011;9034;50.284;19.310;2023-12-07T00:05:11;50.22;;;21.10;;
17818;SDS011;9034;50.284;19.310;2023-12-07T00:06:13;41.60;;;19.10;;
17818;SDS011;9034;50.284;19.310;2023-12-07T00:07:17;44.22;;;19.65;;
17818;SDS011;9034;50.284;19.310;2023-12-07T00:08:19;50.90;;;19.80;;
17818;SDS011;9034;50.284;19.310;2023-12-07T00:09:22;45.83;;;20.20;;
17818;SDS011;9034;50.284;19.310;2023-12-07T00:10:24;52.78;;;21.30;;
17818;SDS011;9034;50.284;19.310;2023-12-07T00:11:27;44.00;;;18.67;;
17818;SDS011;9034;50.284;19.310;2023-12-07T00:12:31;45.45;;;20.33;;
17818;SDS011;9034;50.284;19.310;2023-12-07T00:13:34;41.90;;;18.48;;
17818;SDS011;9034;50.284;19.310;2023-12-07T00:14:36;59.88;;;22.50;;
17818;SDS011;9034;50.284;19.310;2023-12-07T00:15:39;58.00;;;24.50;;
17818;SDS011;9034;50.284;19.310;2023-12-07T00:16:41;62.38;;;24.35;;
17818;SDS011;9034;50.284;19.310;2023-12-07T00:17:45;59.10;;;22.75;;
17818;SDS011;9034;50.284;19.310;2023-12-07T00:18:47;49.17;;;21.75;;
17818;SDS011;9034;50.284;19.310;2023-12-07T00:19:50;57.20;;;22.48;;
17818;SDS011;9034;50.284;19.310;2023-12-07T00:20:52;52.50;;;21.25;;
17818;SDS011;9034;50.284;19.310;2023-12-07T00:21:55;78.80;;;25.38;;
17818;SDS011;9034;50.284;19.310;2023-12-07T00:22:57;62.05;;;26.30;;
17818;SDS011;9034;50.284;19.310;2023-12-07T00:24:00;63.72;;;25.15;;
17818;SDS011;9034;50.284;19.310;2023-12-07T00:25:03;64.65;;;26.38;;
17818;SDS011;9034;50.284;19.310;2023-12-07T00:26:08;54.45;;;21.77;;
17818;SDS011;9034;50.284;19.310;2023-12-07T00:27:10;39.47;;;18.25;;
17818;SDS011;9034;50.284;19.310;2023-12-07T00:28:14;49.28;;;19.67;;
17818;SDS011;9034;50.284;19.310;2023-12-07T00:29:16;42.78;;;18.45;;
17818;SDS011;9034;50.284;19.310;2023-12-07T00:30:19;37.95;;;18.25;;
17818;SDS011;9034;50.284;19.310;2023-12-07T00:31:22;43.88;;;17.80;;
17818;SDS011;9034;50.284;19.310;2023-12-07T00:32:24;45.67;;;19.15;;
17818;SDS011;9034;50.284;19.310;2023-12-07T00:33:28;61.30;;;23.05;;
17818;SDS011;9034;50.284;19.310;2023-12-07T00:34:30;70.18;;;24.45;;
17818;SDS011;9034;50.284;19.310;2023-12-07T00:35:34;61.03;;;23.83;;
17818;SDS011;9034;50.284;19.310;2023-12-07T00:36:36;70.78;;;26.25;;
17818;SDS011;9034;50.284;19.310;2023-12-07T00:37:40;54.45;;;23.92;;
17818;SDS011;9034;50.284;19.310;2023-12-07T00:38:42;54.28;;;22.15;;
17818;SDS011;9034;50.284;19.310;2023-12-07T00:39:45;41.75;;;19.83;;
17818;SDS011;9034;50.284;19.310;2023-12-07T00:40:48;38.28;;;18.75;;
17818;SDS011;9034;50.284;19.310;2023-12-07T00:41:51;50.97;;;20.85;;
17818;SDS011;9034;50.284;19.310;2023-12-07T00:42:54;47.70;;;20.30;;
17818;SDS011;9034;50.284;19.310;2023-12-07T00:43:58;35.60;;;16.05;;
17818;SDS011;9034;50.284;19.310;2023-12-07T00:45:01;61.03;;;22.70;;
17818;SDS011;9034;50.284;19.310;2023-12-07T00:46:06;47.33;;;19.48;;
17818;SDS011;9034;50.284;19.310;2023-12-07T00:47:08;42.50;;;18.63;;
17818;SDS011;9034;50.284;19.310;2023-12-07T00:48:12;54.40;;;20.05;;
17818;SDS011;9034;50.284;19.310;2023-12-07T00:49:14;52.35;;;20.08;;
17818;SDS011;9034;50.284;19.310;2023-12-07T00:50:17;43.83;;;19.02;;
17818;SDS011;9034;50.284;19.310;2023-12-07T00:51:19;45.28;;;18.85;;
17818;SDS011;9034;50.284;19.310;2023-12-07T00:52:22;49.22;;;19.48;;
17818;SDS011;9034;50.284;19.310;2023-12-07T00:53:25;44.53;;;18.95;;
17818;SDS011;9034;50.284;19.310;2023-12-07T00:54:28;55.08;;;22.02;;
17818;SDS011;9034;50.284;19.310;2023-12-07T00:55:30;44.75;;;18.02;;
17818;SDS011;9034;50.284;19.310;2023-12-07T00:56:33;38.45;;;18.65;;
17818;SDS011;9034;50.284;19.310;2023-12-07T00:57:35;43.03;;;18.42;;
17818;SDS011;9034;50.284;19.310;2023-12-07T00:58:38;45.90;;;18.88;;
17818;SDS011;9034;50.284;19.310;2023-12-07T00:59:42;59.33;;;21.40;;
17818;SDS011;9034;50.284;19.310;2023-12-07T01:00:45;58.58;;;22.00;;
17818;SDS011;9034;50.284;19.310;2023-12-07T01:01:47;51.28;;;20.35;;
17818;SDS011;9034;50.284;19.310;2023-12-07T01:02:51;42.95;;;19.48;;
17818;SDS011;9034;50.284;19.310;2023-12-07T01:03:53;50.17;;;20.52;;
17818;SDS011;9034;50.284;19.310;2023-12-07T01:04:56;54.83;;;22.50;;
17818;SDS011;9034;50.284;19.310;2023-12-07T01:05:58;67.32;;;23.90;;
17818;SDS011;9034;50.284;19.310;2023-12-07T01:07:01;61.15;;;22.42;;
17818;SDS011;9034;50.284;19.310;2023-12-07T01:08:04;56.25;;;20.98;;
17818;SDS011;9034;50.284;19.310;2023-12-07T01:09:07;50.47;;;20.08;;
17818;SDS011;9034;50.284;19.310;2023-12-07T01:10:10;66.60;;;24.23;;
17818;SDS011;9034;50.284;19.310;2023-12-07T01:11:12;57.90;;;22.55;;
17818;SDS011;9034;50.284;19.310;2023-12-07T01:12:15;49.75;;;18.73;;
17818;SDS011;9034;50.284;19.310;2023-12-07T01:13:17;42.03;;;19.85;;
17818;SDS011;9034;50.284;19.310;2023-12-07T01:14:20;58.35;;;20.67;;
17818;SDS011;9034;50.284;19.310;2023-12-07T01:15:23;68.82;;;24.83;;
17818;SDS011;9034;50.284;19.310;2023-12-07T01:16:27;50.78;;;20.63;;
17818;SDS011;9034;50.284;19.310;2023-12-07T01:17:29;40.35;;;17.55;;
17818;SDS011;9034;50.284;19.310;2023-12-07T01:18:32;41.88;;;17.60;;
17818;SDS011;9034;50.284;19.310;2023-12-07T01:19:34;67.68;;;23.05;;
17818;SDS011;9034;50.284;19.310;2023-12-07T01:20:37;54.17;;;21.15;;
17818;SDS011;9034;50.284;19.310;2023-12-07T01:21:40;51.90;;;21.90;;
17818;SDS011;9034;50.284;19.310;2023-12-07T01:22:42;60.03;;;22.25;;
17818;SDS011;9034;50.284;19.310;2023-12-07T01:23:47;53.85;;;22.40;;
17818;SDS011;9034;50.284;19.310;2023-12-07T01:24:57;44.55;;;18.30;;
17818;SDS011;9034;50.284;19.310;2023-12-07T01:26:00;57.20;;;22.45;;
17818;SDS011;9034;50.284;19.310;2023-12-07T01:27:04;53.13;;;20.42;;
17818;SDS011;9034;50.284;19.310;2023-12-07T01:28:07;56.60;;;22.50;;
17818;SDS011;9034;50.284;19.310;2023-12-07T01:29:09;55.70;;;22.80;;
17818;SDS011;9034;50.284;19.310;2023-12-07T01:30:12;59.97;;;22.27;;
17818;SDS011;9034;50.284;19.310;2023-12-07T01:31:16;50.85;;;20.52;;
17818;SDS011;9034;50.284;19.310;2023-12-07T01:32:19;65.10;;;22.42;;
17818;SDS011;9034;50.284;19.310;2023-12-07T01:33:22;56.13;;;21.08;;
17818;SDS011;9034;50.284;19.310;2023-12-07T01:34:25;48.78;;;19.27;;
17818;SDS011;9034;50.284;19.310;2023-12-07T01:35:28;53.38;;;20.08;;
17818;SDS011;9034;50.284;19.310;2023-12-07T01:36:31;55.65;;;21.70;;
17818;SDS011;9034;50.284;19.310;2023-12-07T01:37:33;50.78;;;19.92;;
17818;SDS011;9034;50.284;19.310;2023-12-07T01:38:36;50.83;;;19.40;;
17818;SDS011;9034;50.284;19.310;2023-12-07T01:39:38;53.40;;;20.27;;
17818;SDS011;9034;50.284;19.310;2023-12-07T01:40:42;75.70;;;23.75;;
17818;SDS011;9034;50.284;19.310;2023-12-07T01:41:47;53.40;;;19.90;;
17818;SDS011;9034;50.284;19.310;2023-12-07T01:42:50;59.00;;;21.40;;
17818;SDS011;9034;50.284;19.310;2023-12-07T01:43:52;53.95;;;22.20;;
17818;SDS011;9034;50.284;19.310;2023-12-07T01:44:55;57.67;;;21.60;;
17818;SDS011;9034;50.284;19.310;2023-12-07T01:45:58;97.93;;;29.83;;
17818;SDS011;9034;50.284;19.310;2023-12-07T01:47:02;89.22;;;28.38;;
17818;SDS011;9034;50.284;19.310;2023-12-07T01:48:05;67.40;;;24.13;;
17818;SDS011;9034;50.284;19.310;2023-12-07T01:49:08;83.90;;;26.45;;
17818;SDS011;9034;50.284;19.310;2023-12-07T01:50:11;61.85;;;23.05;;
17818;SDS011;9034;50.284;19.310;2023-12-07T01:51:16;64.50;;;22.95;;
17818;SDS011;9034;50.284;19.310;2023-12-07T01:52:20;53.05;;;18.52;;
17818;SDS011;9034;50.284;19.310;2023-12-07T01:53:24;55.10;;;21.77;;
17818;SDS011;9034;50.284;19.310;2023-12-07T01:54:27;56.75;;;21.73;;
17818;SDS011;9034;50.284;19.310;2023-12-07T01:55:29;64.82;;;23.00;;
17818;SDS011;9034;50.284;19.310;2023-12-07T01:56:34;55.45;;;21.13;;
17818;SDS011;9034;50.284;19.310;2023-12-07T01:57:36;62.17;;;22.08;;
17818;SDS011;9034;50.284;19.310;2023-12-07T01:58:39;61.72;;;22.08;;
17818;SDS011;9034;50.284;19.310;2023-12-07T01:59:42;50.15;;;18.92;;
17818;SDS011;9034;50.284;19.310;2023-12-07T02:00:45;61.33;;;22.00;;
17818;SDS011;9034;50.284;19.310;2023-12-07T02:01:48;51.40;;;19.60;;
17818;SDS011;9034;50.284;19.310;2023-12-07T02:02:53;64.10;;;23.45;;
17818;SDS011;9034;50.284;19.310;2023-12-07T02:03:55;83.97;;;26.48;;
17818;SDS011;9034;50.284;19.310;2023-12-07T02:04:59;56.60;;;23.55;;
17818;SDS011;9034;50.284;19.310;2023-12-07T02:06:01;63.80;;;22.38;;
17818;SDS011;9034;50.284;19.310;2023-12-07T02:07:05;79.13;;;26.77;;
17818;SDS011;9034;50.284;19.310;2023-12-07T02:08:08;81.10;;;28.65;;
17818;SDS011;9034;50.284;19.310;2023-12-07T02:09:11;78.47;;;27.38;;
17818;SDS011;9034;50.284;19.310;2023-12-07T02:10:14;81.43;;;28.17;;
17818;SDS011;9034;50.284;19.310;2023-12-07T02:11:17;79.65;;;27.45;;
17818;SDS011;9034;50.284;19.310;2023-12-07T02:12:20;88.00;;;27.77;;
17818;SDS011;9034;50.284;19.310;2023-12-07T02:13:24;54.58;;;21.13;;
17818;SDS011;9034;50.284;19.310;2023-12-07T02:14:27;87.97;;;28.50;;
17818;SDS011;9034;50.284;19.310;2023-12-07T02:15:29;67.78;;;24.85;;
17818;SDS011;9034;50.284;19.310;2023-12-07T02:16:34;65.05;;;22.88;;
17818;SDS011;9034;50.284;19.310;2023-12-07T02:17:45;58.80;;;21.88;;
17818;SDS011;9034;50.284;19.310;2023-12-07T02:18:56;72.38;;;27.00;;
17818;SDS011;9034;50.284;19.310;2023-12-07T02:20:05;49.33;;;20.23;;
17818;SDS011;9034;50.284;19.310;2023-12-07T02:21:13;49.20;;;17.77;;
17818;SDS011;9034;50.284;19.310;2023-12-07T02:22:21;68.43;;;23.20;;
17818;SDS011;9034;50.284;19.310;2023-12-07T02:23:28;56.85;;;22.17;;
17818;SDS011;9034;50.284;19.310;2023-12-07T02:24:47;91.20;;;27.58;;
17818;SDS011;9034;50.284;19.310;2023-12-07T02:27:36;68.75;;;23.92;;
17818;SDS011;9034;50.284;19.310;2023-12-07T02:28:40;71.13;;;24.98;;
17818;SDS011;9034;50.284;19.310;2023-12-07T02:29:42;83.18;;;26.35;;
17818;SDS011;9034;50.284;19.310;2023-12-07T02:30:45;84.25;;;26.80;;
17818;SDS011;9034;50.284;19.310;2023-12-07T02:31:48;77.97;;;25.95;;
17818;SDS011;9034;50.284;19.310;2023-12-07T02:32:51;83.07;;;29.20;;
17818;SDS011;9034;50.284;19.310;2023-12-07T02:33:53;77.15;;;28.02;;
17818;SDS011;9034;50.284;19.310;2023-12-07T02:34:57;76.05;;;24.45;;
17818;SDS011;9034;50.284;19.310;2023-12-07T02:35:59;65.18;;;23.35;;
17818;SDS011;9034;50.284;19.310;2023-12-07T02:37:01;61.00;;;23.45;;
17818;SDS011;9034;50.284;19.310;2023-12-07T02:39:15;54.65;;;21.73;;
17818;SDS011;9034;50.284;19.310;2023-12-07T02:40:19;68.32;;;22.88;;
17818;SDS011;9034;50.284;19.310;2023-12-07T02:41:23;57.65;;;20.50;;
17818;SDS011;9034;50.284;19.310;2023-12-07T02:42:26;43.95;;;18.98;;
17818;SDS011;9034;50.284;19.310;2023-12-07T02:43:30;82.95;;;26.90;;
17818;SDS011;9034;50.284;19.310;2023-12-07T02:44:33;73.00;;;23.98;;
17818;SDS011;9034;50.284;19.310;2023-12-07T02:45:35;53.03;;;20.05;;
17818;SDS011;9034;50.284;19.310;2023-12-07T02:46:39;54.00;;;18.92;;
17818;SDS011;9034;50.284;19.310;2023-12-07T02:47:41;41.35;;;15.10;;
17818;SDS011;9034;50.284;19.310;2023-12-07T02:48:45;47.90;;;17.77;;
17818;SDS011;9034;50.284;19.310;2023-12-07T02:49:48;44.95;;;17.08;;
17818;SDS011;9034;50.284;19.310;2023-12-07T02:50:51;74.47;;;23.88;;
17818;SDS011;9034;50.284;19.310;2023-12-07T02:51:53;59.58;;;20.75;;
17818;SDS011;9034;50.284;19.310;2023-12-07T02:52:56;71.78;;;26.77;;
17818;SDS011;9034;50.284;19.310;2023-12-07T02:53:58;58.38;;;21.63;;
17818;SDS011;9034;50.284;19.310;2023-12-07T02:55:01;51.28;;;19.73;;
17818;SDS011;9034;50.284;19.310;2023-12-07T02:56:04;75.82;;;27.55;;
17818;SDS011;9034;50.284;19.310;2023-12-07T02:57:08;90.00;;;31.95;;
17818;SDS011;9034;50.284;19.310;2023-12-07T02:58:10;75.78;;;27.05;;
17818;SDS011;9034;50.284;19.310;2023-12-07T02:59:15;74.25;;;25.50;;
17818;SDS011;9034;50.284;19.310;2023-12-07T03:00:17;68.47;;;24.58;;
17818;SDS011;9034;50.284;19.310;2023-12-07T03:01:19;62.92;;;22.08;;
17818;SDS011;9034;50.284;19.310;2023-12-07T03:02:22;59.35;;;21.92;;
17818;SDS011;9034;50.284;19.310;2023-12-07T03:03:25;48.92;;;18.85;;
17818;SDS011;9034;50.284;19.310;2023-12-07T03:04:28;78.10;;;28.10;;
17818;SDS011;9034;50.284;19.310;2023-12-07T03:05:30;70.53;;;25.67;;
17818;SDS011;9034;50.284;19.310;2023-12-07T03:06:33;69.82;;;23.50;;
17818;SDS011;9034;50.284;19.310;2023-12-07T03:07:35;68.60;;;27.95;;
17818;SDS011;9034;50.284;19.310;2023-12-07T03:08:39;78.32;;;27.83;;
17818;SDS011;9034;50.284;19.310;2023-12-07T03:09:42;64.45;;;25.02;;
17818;SDS011;9034;50.284;19.310;2023-12-07T03:10:45;69.35;;;26.98;;
17818;SDS011;9034;50.284;19.310;2023-12-07T03:11:47;62.10;;;22.27;;
17818;SDS011;9034;50.284;19.310;2023-12-07T03:12:50;84.28;;;28.05;;
17818;SDS011;9034;50.284;19.310;2023-12-07T03:13:53;50.20;;;20.08;;
17818;SDS011;9034;50.284;19.310;2023-12-07T03:14:56;52.53;;;21.20;;
17818;SDS011;9034;50.284;19.310;2023-12-07T03:15:59;85.40;;;26.05;;
17818;SDS011;9034;50.284;19.310;2023-12-07T03:17:02;73.13;;;26.98;;
17818;SDS011;9034;50.284;19.310;2023-12-07T03:18:05;66.85;;;23.52;;
17818;SDS011;9034;50.284;19.310;2023-12-07T03:19:09;61.15;;;23.85;;
17818;SDS011;9034;50.284;19.310;2023-12-07T03:20:11;88.03;;;27.45;;
17818;SDS011;9034;50.284;19.310;2023-12-07T03:21:15;61.63;;;23.60;;
17818;SDS011;9034;50.284;19.310;2023-12-07T03:22:17;74.72;;;27.70;;
17818;SDS011;9034;50.284;19.310;2023-12-07T03:23:20;81.07;;;27.42;;
17818;SDS011;9034;50.284;19.310;2023-12-07T03:24:22;67.10;;;25.20;;
17818;SDS011;9034;50.284;19.310;2023-12-07T03:25:25;63.03;;;23.73;;
17818;SDS011;9034;50.284;19.310;2023-12-07T03:26:28;49.90;;;21.33;;
17818;SDS011;9034;50.284;19.310;2023-12-07T03:27:31;89.07;;;29.25;;
17818;SDS011;9034;50.284;19.310;2023-12-07T03:28:33;91.40;;;28.25;;
17818;SDS011;9034;50.284;19.310;2023-12-07T03:29:36;65.25;;;26.17;;
17818;SDS011;9034;50.284;19.310;2023-12-07T03:30:39;63.40;;;24.27;;
17818;SDS011;9034;50.284;19.310;2023-12-07T03:31:42;61.45;;;24.50;;
17818;SDS011;9034;50.284;19.310;2023-12-07T03:32:44;44.65;;;16.92;;
17818;SDS011;9034;50.284;19.310;2023-12-07T03:33:48;41.60;;;17.92;;
17818;SDS011;9034;50.284;19.310;2023-12-07T03:34:50;87.60;;;28.98;;
17818;SDS011;9034;50.284;19.310;2023-12-07T03:35:53;65.18;;;24.52;;
17818;SDS011;9034;50.284;19.310;2023-12-07T03:36:55;64.55;;;25.35;;
17818;SDS011;9034;50.284;19.310;2023-12-07T03:37:58;47.10;;;20.15;;
17818;SDS011;9034;50.284;19.310;2023-12-07T03:39:01;49.75;;;20.95;;
17818;SDS011;9034;50.284;19.310;2023-12-07T03:40:07;62.17;;;22.08;;
17818;SDS011;9034;50.284;19.310;2023-12-07T03:41:10;45.47;;;19.33;;
17818;SDS011;9034;50.284;19.310;2023-12-07T03:42:13;54.63;;;20.45;;
17818;SDS011;9034;50.284;19.310;2023-12-07T03:43:35;61.38;;;23.52;;
17818;SDS011;9034;50.284;19.310;2023-12-07T03:44:38;61.65;;;23.05;;
17818;SDS011;9034;50.284;19.310;2023-12-07T03:45:42;50.40;;;19.75;;
17818;SDS011;9034;50.284;19.310;2023-12-07T03:46:45;49.15;;;19.40;;
17818;SDS011;9034;50.284;19.310;2023-12-07T03:47:47;44.95;;;17.73;;
17818;SDS011;9034;50.284;19.310;2023-12-07T03:48:51;50.42;;;19.77;;
17818;SDS011;9034;50.284;19.310;2023-12-07T03:49:53;79.80;;;26.67;;
17818;SDS011;9034;50.284;19.310;2023-12-07T03:50:56;75.65;;;28.75;;
17818;SDS011;9034;50.284;19.310;2023-12-07T03:51:58;54.33;;;22.65;;
17818;SDS011;9034;50.284;19.310;2023-12-07T03:53:01;83.53;;;33.85;;
17818;SDS011;9034;50.284;19.310;2023-12-07T03:54:04;81.93;;;29.70;;
17818;SDS011;9034;50.284;19.310;2023-12-07T03:55:08;75.07;;;29.50;;
17818;SDS011;9034;50.284;19.310;2023-12-07T03:56:21;76.47;;;31.95;;
17818;SDS011;9034;50.284;19.310;2023-12-07T03:57:25;88.28;;;37.22;;
17818;SDS011;9034;50.284;19.310;2023-12-07T03:58:27;129.50;;;53.70;;
17818;SDS011;9034;50.284;19.310;2023-12-07T03:59:30;135.95;;;57.05;;
17818;SDS011;9034;50.284;19.310;2023-12-07T04:00:32;133.98;;;55.35;;
17818;SDS011;9034;50.284;19.310;2023-12-07T04:01:37;93.85;;;44.58;;
17818;SDS011;9034;50.284;19.310;2023-12-07T04:02:39;88.13;;;37.75;;
17818;SDS011;9034;50.284;19.310;2023-12-07T04:03:42;80.38;;;37.35;;
17818;SDS011;9034;50.284;19.310;2023-12-07T04:04:44;72.75;;;32.08;;
17818;SDS011;9034;50.284;19.310;2023-12-07T04:05:47;66.90;;;28.55;;
17818;SDS011;9034;50.284;19.310;2023-12-07T04:06:50;59.15;;;24.58;;
17818;SDS011;9034;50.284;19.310;2023-12-07T04:07:53;56.47;;;23.20;;
17818;SDS011;9034;50.284;19.310;2023-12-07T04:08:55;65.40;;;25.50;;
17818;SDS011;9034;50.284;19.310;2023-12-07T04:09:57;57.33;;;21.73;;
17818;SDS011;9034;50.284;19.310;2023-12-07T04:11:00;53.40;;;21.45;;
17818;SDS011;9034;50.284;19.310;2023-12-07T04:12:03;48.15;;;19.23;;
17818;SDS011;9034;50.284;19.310;2023-12-07T04:13:06;48.80;;;20.50;;
17818;SDS011;9034;50.284;19.310;2023-12-07T04:14:08;57.25;;;21.80;;
17818;SDS011;9034;50.284;19.310;2023-12-07T04:15:12;49.63;;;21.50;;
17818;SDS011;9034;50.284;19.310;2023-12-07T04:16:17;52.97;;;22.63;;
17818;SDS011;9034;50.284;19.310;2023-12-07T04:17:21;67.55;;;25.48;;
17818;SDS011;9034;50.284;19.310;2023-12-07T04:18:24;66.88;;;26.60;;
17818;SDS011;9034;50.284;19.310;2023-12-07T04:19:27;57.78;;;23.40;;
17818;SDS011;9034;50.284;19.310;2023-12-07T04:20:29;67.00;;;25.70;;
17818;SDS011;9034;50.284;19.310;2023-12-07T04:21:31;65.72;;;26.63;;
17818;SDS011;9034;50.284;19.310;2023-12-07T04:22:34;49.72;;;22.85;;
17818;SDS011;9034;50.284;19.310;2023-12-07T04:23:36;57.30;;;24.52;;
17818;SDS011;9034;50.284;19.310;2023-12-07T04:24:39;67.78;;;26.13;;
17818;SDS011;9034;50.284;19.310;2023-12-07T04:25:41;73.38;;;28.45;;
17818;SDS011;9034;50.284;19.310;2023-12-07T04:26:44;74.78;;;27.65;;
17818;SDS011;9034;50.284;19.310;2023-12-07T04:27:47;66.70;;;26.90;;
17818;SDS011;9034;50.284;19.310;2023-12-07T04:28:50;66.50;;;26.02;;
17818;SDS011;9034;50.284;19.310;2023-12-07T04:29:52;69.20;;;25.48;;
17818;SDS011;9034;50.284;19.310;2023-12-07T04:30:55;63.92;;;25.95;;
17818;SDS011;9034;50.284;19.310;2023-12-07T04:31:57;61.72;;;25.08;;
17818;SDS011;9034;50.284;19.310;2023-12-07T04:33:02;57.17;;;23.10;;
17818;SDS011;9034;50.284;19.310;2023-12-07T04:34:04;51.78;;;21.40;;
17818;SDS011;9034;50.284;19.310;2023-12-07T04:35:07;40.90;;;18.98;;
17818;SDS011;9034;50.284;19.310;2023-12-07T04:36:10;44.67;;;19.48;;
17818;SDS011;9034;50.284;19.310;2023-12-07T04:37:13;43.45;;;18.40;;
17818;SDS011;9034;50.284;19.310;2023-12-07T04:38:16;45.10;;;19.10;;
17818;SDS011;9034;50.284;19.310;2023-12-07T04:39:19;48.08;;;21.77;;
17818;SDS011;9034;50.284;19.310;2023-12-07T04:40:21;42.58;;;20.13;;
17818;SDS011;9034;50.284;19.310;2023-12-07T04:41:25;43.22;;;20.23;;
17818;SDS011;9034;50.284;19.310;2023-12-07T04:42:27;46.72;;;20.60;;
17818;SDS011;9034;50.284;19.310;2023-12-07T04:43:31;43.72;;;18.98;;
17818;SDS011;9034;50.284;19.310;2023-12-07T04:44:33;48.00;;;21.10;;
17818;SDS011;9034;50.284;19.310;2023-12-07T04:45:36;50.85;;;21.67;;
17818;SDS011;9034;50.284;19.310;2023-12-07T04:46:38;46.83;;;20.88;;
17818;SDS011;9034;50.284;19.310;2023-12-07T04:47:41;46.70;;;20.70;;
17818;SDS011;9034;50.284;19.310;2023-12-07T04:48:45;54.60;;;21.42;;
17818;SDS011;9034;50.284;19.310;2023-12-07T04:49:48;65.07;;;24.65;;
17818;SDS011;9034;50.284;19.310;2023-12-07T04:50:51;56.13;;;23.35;;
17818;SDS011;9034;50.284;19.310;2023-12-07T04:51:54;55.22;;;22.73;;
17818;SDS011;9034;50.284;19.310;2023-12-07T04:52:56;51.28;;;22.25;;
17818;SDS011;9034;50.284;19.310;2023-12-07T04:53:59;65.47;;;28.40;;
17818;SDS011;9034;50.284;19.310;2023-12-07T04:55:16;68.40;;;27.38;;
17818;SDS011;9034;50.284;19.310;2023-12-07T04:56:19;59.50;;;25.75;;
17818;SDS011;9034;50.284;19.310;2023-12-07T04:57:22;58.03;;;24.45;;
17818;SDS011;9034;50.284;19.310;2023-12-07T04:58:25;54.40;;;24.27;;
17818;SDS011;9034;50.284;19.310;2023-12-07T04:59:27;65.00;;;27.30;;
17818;SDS011;9034;50.284;19.310;2023-12-07T05:00:30;75.07;;;27.73;;
17818;SDS011;9034;50.284;19.310;2023-12-07T05:01:32;65.28;;;29.50;;
17818;SDS011;9034;50.284;19.310;2023-12-07T05:02:36;67.28;;;26.33;;
17818;SDS011;9034;50.284;19.310;2023-12-07T05:03:39;68.00;;;27.15;;
17818;SDS011;9034;50.284;19.310;2023-12-07T05:04:43;53.05;;;25.88;;
17818;SDS011;9034;50.284;19.310;2023-12-07T05:05:46;48.92;;;21.77;;
17818;SDS011;9034;50.284;19.310;2023-12-07T05:06:51;47.67;;;21.40;;
17818;SDS011;9034;50.284;19.310;2023-12-07T05:07:53;51.58;;;22.33;;
17818;SDS011;9034;50.284;19.310;2023-12-07T05:08:56;47.75;;;21.73;;
17818;SDS011;9034;50.284;19.310;2023-12-07T05:09:59;49.63;;;20.63;;
17818;SDS011;9034;50.284;19.310;2023-12-07T05:11:02;41.40;;;18.58;;
17818;SDS011;9034;50.284;19.310;2023-12-07T05:12:04;57.75;;;23.65;;
17818;SDS011;9034;50.284;19.310;2023-12-07T05:13:07;54.25;;;23.60;;
17818;SDS011;9034;50.284;19.310;2023-12-07T05:14:09;54.83;;;23.42;;
17818;SDS011;9034;50.284;19.310;2023-12-07T05:15:13;41.40;;;18.13;;
17818;SDS011;9034;50.284;19.310;2023-12-07T05:16:15;40.03;;;19.25;;
17818;SDS011;9034;50.284;19.310;2023-12-07T05:17:18;47.28;;;20.35;;
17818;SDS011;9034;50.284;19.310;2023-12-07T05:18:20;55.95;;;22.55;;
17818;SDS011;9034;50.284;19.310;2023-12-07T05:19:23;58.60;;;22.92;;
17818;SDS011;9034;50.284;19.310;2023-12-07T05:20:27;49.42;;;21.98;;
17818;SDS011;9034;50.284;19.310;2023-12-07T05:21:30;57.58;;;24.40;;
17818;SDS011;9034;50.284;19.310;2023-12-07T05:22:33;58.88;;;25.30;;
17818;SDS011;9034;50.284;19.310;2023-12-07T05:23:36;58.33;;;23.50;;
17818;SDS011;9034;50.284;19.310;2023-12-07T05:24:40;63.88;;;24.30;;
17818;SDS011;9034;50.284;19.310;2023-12-07T05:25:43;60.55;;;24.95;;
17818;SDS011;9034;50.284;19.310;2023-12-07T05:26:46;65.35;;;27.05;;
17818;SDS011;9034;50.284;19.310;2023-12-07T05:27:50;61.55;;;24.90;;
17818;SDS011;9034;50.284;19.310;2023-12-07T05:28:52;58.80;;;26.67;;
17818;SDS011;9034;50.284;19.310;2023-12-07T05:29:55;51.78;;;25.38;;
17818;SDS011;9034;50.284;19.310;2023-12-07T05:30:57;55.38;;;24.27;;
17818;SDS011;9034;50.284;19.310;2023-12-07T05:32:00;60.38;;;25.38;;
17818;SDS011;9034;50.284;19.310;2023-12-07T05:33:02;62.90;;;27.35;;
17818;SDS011;9034;50.284;19.310;2023-12-07T05:34:06;60.70;;;26.63;;
17818;SDS011;9034;50.284;19.310;2023-12-07T05:35:09;58.25;;;23.75;;
17818;SDS011;9034;50.284;19.310;2023-12-07T05:36:13;68.70;;;28.00;;
17818;SDS011;9034;50.284;19.310;2023-12-07T05:37:15;67.47;;;26.75;;
17818;SDS011;9034;50.284;19.310;2023-12-07T05:38:18;69.10;;;26.55;;
17818;SDS011;9034;50.284;19.310;2023-12-07T05:39:20;56.17;;;25.23;;
17818;SDS011;9034;50.284;19.310;2023-12-07T05:40:22;63.53;;;27.33;;
17818;SDS011;9034;50.284;19.310;2023-12-07T05:41:26;57.22;;;26.30;;
17818;SDS011;9034;50.284;19.310;2023-12-07T05:42:28;55.88;;;26.52;;
17818;SDS011;9034;50.284;19.310;2023-12-07T05:43:31;46.88;;;21.75;;
17818;SDS011;9034;50.284;19.310;2023-12-07T05:44:35;64.07;;;27.77;;
17818;SDS011;9034;50.284;19.310;2023-12-07T05:45:38;58.45;;;24.92;;
17818;SDS011;9034;50.284;19.310;2023-12-07T05:46:40;62.92;;;25.75;;
17818;SDS011;9034;50.284;19.310;2023-12-07T05:47:45;60.33;;;25.48;;
17818;SDS011;9034;50.284;19.310;2023-12-07T05:48:49;57.22;;;23.20;;
17818;SDS011;9034;50.284;19.310;2023-12-07T05:49:54;60.40;;;26.25;;
17818;SDS011;9034;50.284;19.310;2023-12-07T05:50:59;56.65;;;24.80;;
17818;SDS011;9034;50.284;19.310;2023-12-07T05:52:02;56.35;;;23.88;;
17818;SDS011;9034;50.284;19.310;2023-12-07T05:53:06;60.97;;;26.42;;
17818;SDS011;9034;50.284;19.310;2023-12-07T05:54:08;65.20;;;27.20;;
17818;SDS011;9034;50.284;19.310;2023-12-07T05:55:10;61.47;;;28.38;;
17818;SDS011;9034;50.284;19.310;2023-12-07T05:56:17;66.10;;;27.00;;
17818;SDS011;9034;50.284;19.310;2023-12-07T05:57:20;60.65;;;28.38;;
17818;SDS011;9034;50.284;19.310;2023-12-07T05:58:23;61.78;;;25.05;;
17818;SDS011;9034;50.284;19.310;2023-12-07T05:59:25;66.35;;;26.95;;
17818;SDS011;9034;50.284;19.310;2023-12-07T06:00:28;61.92;;;28.10;;
17818;SDS011;9034;50.284;19.310;2023-12-07T06:01:30;69.60;;;28.17;;
17818;SDS011;9034;50.284;19.310;2023-12-07T06:02:34;65.03;;;25.77;;
17818;SDS011;9034;50.284;19.310;2023-12-07T06:03:36;62.42;;;26.23;;
17818;SDS011;9034;50.284;19.310;2023-12-07T06:04:39;63.22;;;25.48;;
17818;SDS011;9034;50.284;19.310;2023-12-07T06:05:41;56.63;;;26.63;;
17818;SDS011;9034;50.284;19.310;2023-12-07T06:06:46;69.50;;;28.42;;
17818;SDS011;9034;50.284;19.310;2023-12-07T06:07:50;63.00;;;27.27;;
17818;SDS011;9034;50.284;19.310;2023-12-07T06:08:55;54.65;;;23.73;;
17818;SDS011;9034;50.284;19.310;2023-12-07T06:09:57;43.15;;;19.05;;
17818;SDS011;9034;50.284;19.310;2023-12-07T06:11:01;72.22;;;31.13;;
17818;SDS011;9034;50.284;19.310;2023-12-07T06:12:03;67.30;;;29.65;;
17818;SDS011;9034;50.284;19.310;2023-12-07T06:13:07;62.03;;;27.15;;